Time;durP1;ratioP1;P1;durP2;ratioP2;P2;SDS_P1;SDS_P2;PMS_P1;PMS_P2;Temp;Humidity;BMP_temperature;BMP_pressure;BME280_temperature;BME280_humidity;BME280_pressure;Samples;Min_cycle;Max_cycle;Signal;HPM_P1;HPM_P2
2022/05/15 00:00:53;;;;;;;7.25;6.68;;;;;;;21.38;72.19;99354.69;5090980;28;20570;-59
2022/05/15 00:03:22;;;;;;;7.60;7.07;;;;;;;21.34;72.32;99359.34;5090351;28;20202;-59
2022/05/15 00:05:53;;;;;;;8.02;7.40;;;;;;;21.33;72.31;99352.38;5090634;28;20278;-63
2022/05/15 00:08:20;;;;;;;7.70;6.82;;;;;;;21.29;72.74;99358.00;5090601;28;20199;-62
2022/05/15 00:10:47;;;;;;;7.53;7.00;;;;;;;21.29;72.71;99356.22;5090332;28;20310;-62
2022/05/15 00:13:14;;;;;;;7.15;6.60;;;;;;;21.31;72.81;99345.56;5090029;28;20234;-62
2022/05/15 00:15:41;;;;;;;9.23;6.75;;;;;;;21.26;72.95;99351.16;5089125;28;20228;-62
2022/05/15 00:18:11;;;;;;;7.57;6.97;;;;;;;21.24;73.07;99345.16;5089494;28;20202;-62
2022/05/15 00:20:40;;;;;;;6.95;6.55;;;;;;;21.25;73.27;99346.00;5090316;28;20206;-61
2022/05/15 00:23:07;;;;;;;7.90;7.20;;;;;;;21.28;73.14;99351.91;5090060;28;20245;-62
2022/05/15 00:25:34;;;;;;;8.35;7.63;;;;;;;21.31;72.90;99356.09;5090416;28;20301;-58
2022/05/15 00:28:01;;;;;;;7.85;7.18;;;;;;;21.29;73.34;99355.38;5090179;28;20674;-58
2022/05/15 00:30:28;;;;;;;7.93;7.22;;;;;;;21.33;72.93;99356.84;5089979;28;20221;-59
2022/05/15 00:32:56;;;;;;;8.27;7.63;;;;;;;21.28;73.04;99356.34;5090060;28;20191;-62
2022/05/15 00:35:24;;;;;;;7.63;6.93;;;;;;;21.19;73.39;99357.03;5090257;28;20660;-62
2022/05/15 00:37:51;;;;;;;9.32;7.43;;;;;;;21.15;73.48;99368.72;5090086;28;20195;-61
2022/05/15 00:40:20;;;;;;;7.38;6.80;;;;;;;21.14;73.18;99356.47;5090086;28;20186;-58
2022/05/15 00:42:48;;;;;;;7.35;6.75;;;;;;;21.15;72.93;99359.00;5090118;28;20198;-58
2022/05/15 00:45:17;;;;;;;7.50;6.85;;;;;;;20.99;73.11;99335.56;5089908;28;20207;-62
2022/05/15 00:47:44;;;;;;;7.32;6.80;;;;;;;21.07;72.76;99350.00;5089921;28;20282;-61
2022/05/15 00:50:16;;;;;;;7.97;7.30;;;;;;;21.08;73.00;99356.94;5089693;28;20219;-62
2022/05/15 00:52:48;;;;;;;7.18;6.43;;;;;;;21.09;73.18;99353.38;5089925;28;20195;-61
2022/05/15 00:55:20;;;;;;;7.85;7.30;;;;;;;20.99;73.23;99354.03;5089909;28;20286;-58
2022/05/15 00:57:52;;;;;;;9.10;6.53;;;;;;;20.97;73.23;99366.50;5089919;28;20202;-62
2022/05/15 01:00:22;;;;;;;7.53;6.75;;;;;;;20.99;72.96;99369.84;5089967;28;20193;-60
2022/05/15 01:02:55;;;;;;;7.50;6.60;;;;;;;20.86;72.69;99340.06;5090042;28;20231;-58
2022/05/15 01:05:22;;;;;;;6.95;6.55;;;;;;;20.92;73.12;99359.88;5090246;28;20321;-58
2022/05/15 01:07:51;;;;;;;7.32;6.72;;;;;;;20.99;72.92;99363.75;5090074;28;20730;-57
2022/05/15 01:10:19;;;;;;;7.78;6.95;;;;;;;20.96;72.90;99364.81;5089772;28;20262;-58
2022/05/15 01:12:48;;;;;;;7.05;6.53;;;;;;;20.87;72.85;99349.69;5089775;28;20227;-59
2022/05/15 01:15:19;;;;;;;7.32;6.72;;;;;;;20.93;72.65;99349.22;5089694;28;20261;-61
2022/05/15 01:17:46;;;;;;;7.15;6.75;;;;;;;20.95;72.49;99352.59;5089729;28;20192;-59
2022/05/15 01:20:16;;;;;;;7.30;6.90;;;;;;;20.97;72.14;99355.97;5089698;28;20675;-62
2022/05/15 01:22:45;;;;;;;7.43;6.50;;;;;;;20.86;72.49;99353.28;5089614;28;20197;-60
2022/05/15 01:25:15;;;;;;;7.22;6.65;;;;;;;20.94;72.08;99355.34;5089603;28;20206;-61
2022/05/15 01:27:46;;;;;;;9.20;6.57;;;;;;;20.92;72.11;99355.44;5089191;28;20191;-61
2022/05/15 01:30:14;;;;;;;6.88;6.35;;;;;;;20.79;72.52;99365.22;5093069;28;20715;-59
2022/05/15 01:32:41;;;;;;;8.75;6.78;;;;;;;20.77;72.75;99358.38;5093854;28;20550;-58
2022/05/15 01:35:08;;;;;;;7.07;6.38;;;;;;;20.75;72.45;99357.66;5093098;28;20678;-59
2022/05/15 01:37:35;;;;;;;6.78;6.18;;;;;;;20.73;72.64;99359.56;5093249;28;20204;-59
2022/05/15 01:40:05;;;;;;;6.90;6.38;;;;;;;20.69;72.10;99366.00;5093155;28;20209;-62
2022/05/15 01:42:32;;;;;;;6.47;5.82;;;;;;;20.77;71.99;99372.38;5093362;28;20221;-59
2022/05/15 01:44:59;;;;;;;6.15;5.45;;;;;;;20.68;71.79;99344.03;5093289;28;20195;-58
2022/05/15 01:47:26;;;;;;;6.50;5.72;;;;;;;20.72;71.62;99376.31;5093209;28;20270;-62
2022/05/15 01:49:53;;;;;;;6.03;5.55;;;;;;;20.68;71.89;99370.41;5093027;28;20195;-61
2022/05/15 01:52:20;;;;;;;6.25;5.75;;;;;;;20.64;72.09;99379.53;5093247;28;20282;-62
2022/05/15 01:54:46;;;;;;;6.75;6.25;;;;;;;20.69;71.88;99377.38;5092987;28;20289;-59
2022/05/15 01:57:15;;;;;;;6.70;6.25;;;;;;;20.63;72.11;99380.47;5092800;28;20191;-62
2022/05/15 01:59:42;;;;;;;6.35;6.00;;;;;;;20.59;72.02;99376.38;5092881;28;20210;-62
2022/05/15 02:02:09;;;;;;;7.35;6.40;;;;;;;20.61;72.09;99379.75;5092564;28;20286;-57
2022/05/15 02:04:36;;;;;;;7.18;6.50;;;;;;;20.59;72.17;99381.66;5092968;28;20667;-57
2022/05/15 02:07:03;;;;;;;6.75;6.25;;;;;;;20.55;72.43;99385.44;5092568;28;20195;-57
2022/05/15 02:09:30;;;;;;;6.65;6.18;;;;;;;20.41;73.04;99393.50;5092772;28;20614;-57
2022/05/15 02:11:57;;;;;;;6.93;6.35;;;;;;;20.33;73.27;99394.00;5092557;28;20622;-58
2022/05/15 02:14:25;;;;;;;6.78;6.20;;;;;;;20.35;73.07;99386.88;5092535;28;20223;-58
2022/05/15 02:16:52;;;;;;;8.80;6.32;;;;;;;20.47;72.50;99387.78;5092531;28;20199;-63
2022/05/15 02:19:19;;;;;;;7.00;6.47;;;;;;;20.44;72.59;99401.19;5092371;28;20195;-62
2022/05/15 02:21:47;;;;;;;7.03;6.43;;;;;;;20.40;72.48;99394.47;5092385;28;20187;-62
2022/05/15 02:24:15;;;;;;;7.32;6.82;;;;;;;20.26;72.45;99384.84;5092250;28;20210;-59
2022/05/15 02:26:42;;;;;;;7.32;6.88;;;;;;;20.39;72.58;99401.53;5092607;28;20674;-58
2022/05/15 02:29:09;;;;;;;7.30;6.50;;;;;;;20.31;72.42;99399.38;5092208;28;20286;-60
2022/05/15 02:31:38;;;;;;;6.70;6.20;;;;;;;20.24;72.32;99392.88;5092031;28;20318;-58
2022/05/15 02:34:05;;;;;;;7.18;6.68;;;;;;;20.29;72.61;99397.84;5092213;28;20191;-58
2022/05/15 02:36:32;;;;;;;7.32;6.65;;;;;;;20.29;73.06;99400.47;5092265;28;20269;-57
2022/05/15 02:38:59;;;;;;;8.75;6.20;;;;;;;20.14;72.78;99375.19;5091996;28;20195;-57
2022/05/15 02:41:26;;;;;;;7.60;6.95;;;;;;;20.27;72.99;99402.38;5091597;28;20286;-58
2022/05/15 02:43:53;;;;;;;6.88;6.28;;;;;;;20.23;73.29;99401.72;5092049;28;20191;-60
2022/05/15 02:46:20;;;;;;;7.05;6.15;;;;;;;20.12;73.59;99388.47;5092218;28;20199;-60
2022/05/15 02:51:33;;;;;;;7.68;5.72;;;;;;;20.19;73.40;99410.81;5091876;28;20723;-58
2022/05/15 02:53:59;;;;;;;6.75;6.25;;;;;;;20.18;73.35;99403.00;5091825;28;20205;-58
2022/05/15 02:56:31;;;;;;;6.63;6.10;;;;;;;20.14;73.31;99415.53;5091807;28;20660;-58
2022/05/15 02:58:58;;;;;;;9.93;6.35;;;;;;;20.20;73.21;99411.66;5092132;28;20638;-58
2022/05/15 03:01:26;;;;;;;6.40;5.90;;;;;;;20.10;72.77;99390.34;5091657;28;20198;-57
2022/05/15 03:03:54;;;;;;;8.05;6.68;;;;;;;20.15;73.55;99411.13;5091617;28;20693;-57
2022/05/15 03:06:21;;;;;;;7.88;6.70;;;;;;;20.17;73.07;99412.72;5091466;28;20202;-59
2022/05/15 03:08:51;;;;;;;7.25;6.75;;;;;;;20.19;73.10;99413.44;5091978;28;20278;-58
2022/05/15 03:11:19;;;;;;;7.47;6.65;;;;;;;20.21;73.03;99423.84;5091301;28;20723;-59
2022/05/15 03:13:47;;;;;;;8.10;7.50;;;;;;;20.15;73.62;99425.16;5091175;28;20239;-58
2022/05/15 03:16:15;;;;;;;12.88;7.45;;;;;;;20.13;73.71;99421.78;5091187;28;20191;-59
2022/05/15 03:18:44;;;;;;;8.07;7.40;;;;;;;20.19;73.54;99429.25;5090816;28;20200;-57
2022/05/15 03:21:28;;;;;;;15.15;7.63;;;;;;;20.22;73.60;99436.09;5089616;28;20195;-58
2022/05/15 03:23:56;;;;;;;9.73;7.03;;;;;;;20.22;73.64;99431.66;5090220;28;20584;-58
2022/05/15 03:26:23;;;;;;;7.35;6.72;;;;;;;20.26;73.92;99438.41;5091101;28;20226;-59
2022/05/15 03:28:50;;;;;;;7.90;7.30;;;;;;;20.35;73.23;99428.16;5071045;28;20300;-62
2022/05/15 03:31:17;;;;;;;7.57;7.03;;;;;;;20.41;72.33;99439.19;5075077;28;20233;-62
2022/05/15 03:33:45;;;;;;;7.55;6.80;;;;;;;20.38;72.74;99435.91;5090223;27;20479;-61
2022/05/15 03:36:14;;;;;;;7.45;6.80;;;;;;;20.45;72.66;99442.41;5070463;28;20196;-60
2022/05/15 03:38:43;;;;;;;8.73;6.88;;;;;;;20.49;71.00;99439.47;5070942;28;20249;-61
2022/05/15 03:41:11;;;;;;;6.97;6.38;;;;;;;20.56;69.94;99440.72;5070617;28;20188;-58
2022/05/15 03:43:38;;;;;;;7.72;6.32;;;;;;;20.70;68.80;99442.38;5070571;28;20196;-58
2022/05/15 03:46:06;;;;;;;6.28;5.82;;;;;;;20.84;68.25;99446.66;5070547;28;20644;-58
2022/05/15 03:48:33;;;;;;;6.72;6.13;;;;;;;21.41;65.72;99448.66;5070547;28;20199;-63
2022/05/15 03:51:00;;;;;;;7.15;6.55;;;;;;;22.47;61.72;99451.03;5070478;28;20219;-62
2022/05/15 03:53:29;;;;;;;6.38;5.90;;;;;;;23.88;55.77;99455.34;5069902;28;20188;-62
2022/05/15 03:55:58;;;;;;;6.03;5.55;;;;;;;25.15;50.65;99455.75;5070441;28;20206;-63
2022/05/15 03:58:26;;;;;;;6.38;5.63;;;;;;;25.94;47.55;99453.81;5070334;28;20203;-63
2022/05/15 04:00:53;;;;;;;6.35;4.93;;;;;;;25.68;47.49;99460.69;5081403;28;20206;-62
2022/05/15 04:03:21;;;;;;;5.97;4.82;;;;;;;24.94;49.38;99463.00;5090398;28;20207;-62
2022/05/15 04:05:48;;;;;;;6.97;5.90;;;;;;;24.58;50.59;99467.06;5090672;28;20202;-59
2022/05/15 04:08:15;;;;;;;6.95;6.25;;;;;;;25.18;49.30;99467.91;5090152;28;20659;-63
2022/05/15 04:10:44;;;;;;;7.72;5.60;;;;;;;26.77;45.56;99460.94;5089852;28;20223;-63
2022/05/15 04:13:11;;;;;;;7.68;5.13;;;;;;;28.73;40.99;99464.22;5089726;28;20229;-63
2022/05/15 04:15:38;;;;;;;5.80;5.15;;;;;;;30.32;37.70;99470.09;5090293;28;20205;-62
2022/05/15 04:18:06;;;;;;;9.05;5.38;;;;;;;31.45;35.50;99467.91;5087123;28;20199;-63
2022/05/15 04:20:33;;;;;;;6.32;4.95;;;;;;;32.75;33.59;99474.75;5082916;28;20199;-62
2022/05/15 04:23:00;;;;;;;5.82;5.15;;;;;;;33.54;31.98;99472.97;5089117;28;20191;-63
2022/05/15 04:25:28;;;;;;;7.57;5.03;;;;;;;34.15;30.89;99473.31;5088802;28;20197;-63
2022/05/15 04:27:56;;;;;;;6.13;4.88;;;;;;;34.75;30.39;99479.91;5089487;28;20634;-63
2022/05/15 04:30:26;;;;;;;5.88;4.82;;;;;;;35.39;29.43;99482.22;5089197;28;20225;-59
2022/05/15 04:32:53;;;;;;;5.20;4.80;;;;;;;35.95;28.49;99488.94;5086472;28;20213;-64
2022/05/15 04:35:22;;;;;;;5.82;4.70;;;;;;;36.45;28.35;99478.53;5088935;28;20187;-64
2022/05/15 04:37:51;;;;;;;5.25;4.80;;;;;;;37.28;27.00;99460.50;5088788;28;20191;-64
2022/05/15 04:40:19;;;;;;;4.90;4.50;;;;;;;37.68;26.71;99479.22;5088863;28;20270;-63
2022/05/15 04:42:46;;;;;;;6.07;4.70;;;;;;;38.24;25.50;99476.44;5087236;28;20617;-58
2022/05/15 04:45:15;;;;;;;5.30;4.80;;;;;;;38.48;24.99;99491.00;5087478;28;20197;-59
2022/05/15 04:47:44;;;;;;;24.27;4.75;;;;;;;37.66;25.62;99475.91;5087947;28;20667;-59
2022/05/15 04:50:11;;;;;;;7.10;4.90;;;;;;;37.34;26.20;99489.44;5087670;28;20232;-58
2022/05/15 04:52:38;;;;;;;4.20;3.95;;;;;;;36.89;26.49;99490.47;5088233;28;20221;-59
2022/05/15 04:55:05;;;;;;;4.90;4.50;;;;;;;36.46;26.54;99490.97;5085969;28;20199;-60
2022/05/15 04:57:33;;;;;;;4.38;4.07;;;;;;;37.50;25.87;99482.63;5087077;28;20199;-58
2022/05/15 04:59:59;;;;;;;6.68;3.95;;;;;;;37.77;25.31;99488.72;5086790;28;20366;-64
2022/05/15 05:02:28;;;;;;;7.22;4.22;;;;;;;38.42;24.79;99486.47;5085178;28;20205;-64
2022/05/15 05:04:59;;;;;;;4.50;4.10;;;;;;;38.45;25.23;99491.44;5091227;28;20285;-59
2022/05/15 05:07:26;;;;;;;5.28;4.80;;;;;;;38.86;24.69;99505.19;5092171;28;20203;-63
2022/05/15 05:09:53;;;;;;;6.70;4.30;;;;;;;39.02;23.95;99503.78;5091239;28;20198;-58
2022/05/15 05:12:20;;;;;;;5.30;4.78;;;;;;;37.91;25.45;99509.25;5091465;28;20241;-64
2022/05/15 05:14:47;;;;;;;5.00;4.60;;;;;;;38.23;25.21;99510.03;5092232;28;20592;-63
2022/05/15 05:17:14;;;;;;;5.53;5.07;;;;;;;38.27;24.85;99507.69;5091924;28;20190;-63
2022/05/15 05:19:43;;;;;;;5.10;4.70;;;;;;;37.88;25.41;99501.56;5092212;28;20598;-63
2022/05/15 05:22:10;;;;;;;6.10;5.50;;;;;;;38.02;25.37;99508.53;5091801;28;20198;-64
2022/05/15 05:24:36;;;;;;;6.22;5.72;;;;;;;38.32;25.92;99508.69;5092438;28;20272;-64
2022/05/15 05:27:04;;;;;;;8.23;5.25;;;;;;;37.97;25.66;99505.66;5092361;28;20260;-58
2022/05/15 05:29:31;;;;;;;5.13;4.63;;;;;;;38.32;25.37;99505.16;5092111;28;20689;-60
2022/05/15 05:31:58;;;;;;;4.93;4.55;;;;;;;38.22;25.33;99504.84;5092263;28;20217;-63
2022/05/15 05:34:25;;;;;;;4.57;4.20;;;;;;;38.28;25.26;99499.34;5092407;28;20698;-61
2022/05/15 05:36:53;;;;;;;5.03;4.57;;;;;;;37.88;25.31;99504.28;5091822;28;20191;-57
2022/05/15 05:39:21;;;;;;;4.93;4.53;;;;;;;38.17;25.42;99504.66;5092559;28;20204;-57
2022/05/15 05:41:48;;;;;;;18.98;7.95;;;;;;;37.76;25.55;99508.75;5092565;28;20687;-57
2022/05/15 05:44:15;;;;;;;28.73;9.63;;;;;;;37.21;26.51;99496.78;5092219;28;20650;-60
2022/05/15 05:46:42;;;;;;;5.00;4.65;;;;;;;37.56;26.04;99513.44;5092292;28;20198;-59
2022/05/15 05:49:09;;;;;;;7.20;4.60;;;;;;;37.52;25.77;99506.78;5070720;28;20215;-60
2022/05/15 05:51:36;;;;;;;32.13;9.45;;;;;;;37.81;27.24;99511.63;5090174;28;20539;-59
2022/05/15 05:54:04;;;;;;;9.85;4.10;;;;;;;38.62;24.87;99505.25;5092185;28;20199;-61
2022/05/15 05:56:31;;;;;;;4.60;4.18;;;;;;;39.25;23.56;99507.66;5092138;28;20212;-64
2022/05/15 05:58:58;;;;;;;8.23;5.05;;;;;;;39.17;23.80;99511.50;5092139;28;20221;-64
2022/05/15 06:01:25;;;;;;;5.25;4.22;;;;;;;38.92;23.66;99513.47;5091448;28;20195;-67
2022/05/15 06:06:36;;;;;;;5.13;3.78;;;;;;;38.69;24.51;99512.28;5091912;28;20688;-67
2022/05/15 06:09:05;;;;;;;4.85;4.45;;;;;;;38.67;24.13;99495.41;5092005;28;20199;-67
2022/05/15 06:11:32;;;;;;;5.95;3.92;;;;;;;38.65;23.81;99504.81;5091984;28;20305;-67
2022/05/15 06:13:59;;;;;;;6.40;4.10;;;;;;;38.82;24.23;99509.44;5079042;28;20257;-66
2022/05/15 06:16:26;;;;;;;5.03;4.63;;;;;;;38.95;23.84;99508.41;5086929;28;20206;-66
2022/05/15 06:18:52;;;;;;;10.27;4.38;;;;;;;39.13;23.70;99504.88;5091815;28;20198;-67
2022/05/15 06:21:19;;;;;;;4.10;3.85;;;;;;;39.04;23.64;99506.25;5092096;28;20557;-60
2022/05/15 06:23:46;;;;;;;5.25;3.97;;;;;;;38.56;24.10;99501.59;5092067;28;20206;-59
2022/05/15 06:26:15;;;;;;;4.68;3.72;;;;;;;38.04;24.81;99500.16;5092022;28;20237;-59
2022/05/15 06:28:42;;;;;;;3.83;3.42;;;;;;;38.23;24.69;99498.34;5091252;28;20190;-59
2022/05/15 06:31:09;;;;;;;4.15;3.90;;;;;;;37.87;25.18;99482.81;5091312;28;20670;-60
2022/05/15 06:33:36;;;;;;;4.80;3.67;;;;;;;38.04;24.59;99495.56;5091805;28;20187;-58
2022/05/15 06:36:03;;;;;;;4.05;3.28;;;;;;;37.81;24.66;99495.38;5091509;28;20273;-60
2022/05/15 06:38:30;;;;;;;4.10;3.80;;;;;;;37.56;25.14;99486.34;5091548;28;20186;-61
2022/05/15 06:40:57;;;;;;;6.25;3.70;;;;;;;36.88;25.63;99488.81;5091730;28;20286;-60
2022/05/15 06:43:25;;;;;;;7.13;3.80;;;;;;;36.32;25.81;99494.78;5091953;28;20715;-60
2022/05/15 06:45:52;;;;;;;3.65;3.30;;;;;;;35.46;26.62;99480.38;5091980;28;20198;-60
2022/05/15 06:48:19;;;;;;;5.22;4.72;;;;;;;35.13;27.13;99488.34;5091821;28;20205;-59
2022/05/15 06:50:49;;;;;;;3.97;3.58;;;;;;;35.16;27.27;99490.66;5091955;28;20291;-63
2022/05/15 06:53:16;;;;;;;8.02;4.32;;;;;;;34.95;27.50;99481.66;5091361;28;20230;-64
2022/05/15 06:57:28;;;;;;;6.47;3.83;;;;;;;35.25;27.26;99486.75;5091244;28;20298;-63
2022/05/15 06:58:30;;;;;;;4.55;4.18;;;;;;;34.68;27.87;99484.41;5091442;28;20565;-64
2022/05/15 07:00:57;;;;;;;5.20;3.90;;;;;;;34.64;28.32;99480.47;5091776;28;20203;-65
2022/05/15 07:03:24;;;;;;;4.32;3.95;;;;;;;34.51;28.46;99484.75;5091721;28;20188;-63
2022/05/15 07:05:51;;;;;;;4.13;3.83;;;;;;;34.28;29.29;99481.50;5091615;28;20206;-63
2022/05/15 07:08:18;;;;;;;4.15;3.60;;;;;;;34.55;28.80;99490.56;5091129;28;20214;-65
2022/05/15 07:10:45;;;;;;;4.22;3.50;;;;;;;34.77;27.51;99488.63;5091465;28;20290;-64
2022/05/15 07:13:13;;;;;;;5.32;3.97;;;;;;;34.81;27.90;99484.50;5091041;28;20235;-59
2022/05/15 07:15:42;;;;;;;5.32;3.90;;;;;;;35.09;27.37;99487.94;5091451;28;20206;-59
2022/05/15 07:18:09;;;;;;;6.38;3.58;;;;;;;34.59;27.47;99484.59;5090963;28;20202;-58
2022/05/15 07:20:37;;;;;;;6.75;3.85;;;;;;;34.67;27.06;99490.84;5090998;28;20278;-58
2022/05/15 07:23:04;;;;;;;5.13;3.20;;;;;;;35.14;26.78;99482.75;5088860;28;20191;-57
2022/05/15 07:25:32;;;;;;;9.85;3.15;;;;;;;35.18;25.90;99485.91;5090576;28;20242;-58
2022/05/15 07:27:58;;;;;;;3.97;3.53;;;;;;;34.93;26.30;99489.13;5090984;28;20229;-59
2022/05/15 07:30:25;;;;;;;8.20;3.50;;;;;;;35.62;25.65;99482.69;5091296;28;20679;-58
2022/05/15 07:32:54;;;;;;;5.40;3.10;;;;;;;35.74;25.08;99491.03;5091150;28;20240;-58
2022/05/15 07:35:21;;;;;;;5.72;3.00;;;;;;;36.08;24.64;99498.09;5090939;28;20265;-60
2022/05/15 07:37:48;;;;;;;4.50;3.13;;;;;;;36.59;24.10;99480.13;5090368;28;20226;-58
2022/05/15 07:40:14;;;;;;;6.57;3.80;;;;;;;37.34;23.84;99492.13;5090886;28;20257;-57
2022/05/15 07:42:43;;;;;;;5.40;3.72;;;;;;;37.36;23.77;99491.91;5090025;28;20197;-58
2022/05/15 07:45:11;;;;;;;6.50;3.38;;;;;;;37.63;23.49;99488.00;5090834;28;20252;-59
2022/05/15 07:47:38;;;;;;;6.55;3.28;;;;;;;37.70;23.65;99477.94;5088736;28;20217;-58
2022/05/15 07:50:08;;;;;;;6.10;3.50;;;;;;;38.00;23.25;99488.94;5089947;28;20199;-59
2022/05/15 07:52:36;;;;;;;5.20;3.42;;;;;;;37.98;23.80;99482.09;5089165;28;20234;-60
2022/05/15 07:55:05;;;;;;;7.82;4.68;;;;;;;37.89;22.64;99464.44;5088073;28;20198;-60
2022/05/15 07:57:33;;;;;;;4.95;3.72;;;;;;;37.78;22.48;99484.97;5089218;28;20195;-59
2022/05/15 08:00:00;;;;;;;9.10;3.42;;;;;;;37.35;23.48;99487.56;5089148;28;20203;-66
2022/05/15 08:02:27;;;;;;;8.75;4.28;;;;;;;37.78;22.78;99483.09;5089340;28;20210;-67
2022/05/15 08:08:05;;;;;;;4.63;3.75;;;;;;;38.48;22.39;99491.00;5067058;28;20703;-67
2022/05/15 08:10:35;;;;;;;3.58;3.28;;;;;;;38.30;22.56;99488.25;5081078;28;20202;-66
2022/05/15 08:13:03;;;;;;;6.78;3.30;;;;;;;38.29;22.35;99498.28;5086328;28;20235;-66
2022/05/15 08:15:30;;;;;;;4.95;2.58;;;;;;;38.45;21.18;99502.31;5088975;28;20650;-66
2022/05/15 08:23:33;;;;;;;5.75;2.58;;;;;;;38.39;21.36;99497.75;5088140;28;20199;-65
2022/05/15 08:23:39;;;;;;;4.70;3.35;;;;;;;37.73;22.43;99501.03;5087834;28;20712;-58
2022/05/15 08:26:06;;;;;;;3.70;2.90;;;;;;;37.53;21.77;99495.75;5086923;28;20202;-59
2022/05/15 08:28:34;;;;;;;3.08;2.40;;;;;;;37.04;21.96;99497.25;5090136;28;20202;-59
2022/05/15 08:31:01;;;;;;;5.75;2.92;;;;;;;36.45;22.80;99500.16;5090076;28;20215;-59
2022/05/15 08:33:28;;;;;;;6.03;2.95;;;;;;;36.09;23.33;99494.34;5089524;28;20258;-66
2022/05/15 08:35:55;;;;;;;4.10;3.08;;;;;;;35.48;24.63;99494.50;5090090;28;20206;-66
2022/05/15 08:38:22;;;;;;;4.93;2.90;;;;;;;35.55;24.26;99492.66;5089342;28;20207;-66
2022/05/15 08:40:56;;;;;;;2.55;2.20;;;;;;;35.23;23.90;99495.03;5090037;28;20198;-66
2022/05/15 08:43:44;;;;;;;3.08;2.85;;;;;;;34.91;24.12;99487.66;5090202;28;20667;-66
2022/05/15 08:46:38;;;;;;;5.47;2.70;;;;;;;34.73;24.52;99492.75;5090258;28;20211;-66
2022/05/15 08:49:11;;;;;;;4.47;2.35;;;;;;;34.43;24.48;99487.59;5090071;28;20230;-66
2022/05/15 08:51:43;;;;;;;3.10;2.80;;;;;;;34.16;24.64;99493.81;5089679;28;20203;-66
2022/05/15 08:54:12;;;;;;;5.53;2.97;;;;;;;34.21;24.54;99488.66;5089685;28;20683;-58
2022/05/15 08:56:50;;;;;;;3.85;2.70;;;;;;;34.21;24.64;99484.09;5089084;28;20758;-60
2022/05/15 08:59:23;;;;;;;2.80;2.60;;;;;;;34.27;24.74;99487.09;5086908;28;20191;-58
2022/05/15 09:01:53;;;;;;;4.53;2.50;;;;;;;34.23;25.78;99487.44;5089122;28;20719;-57
2022/05/15 09:04:21;;;;;;;3.35;3.05;;;;;;;34.34;24.80;99469.91;5086710;28;20694;-58
2022/05/15 09:06:58;;;;;;;3.42;2.72;;;;;;;34.50;25.04;99493.88;5089312;28;20279;-59
2022/05/15 09:09:32;;;;;;;9.30;2.83;;;;;;;34.70;24.67;99487.75;5086580;28;20233;-65
2022/05/15 09:12:07;;;;;;;2.85;2.60;;;;;;;34.84;24.06;99476.03;5087241;28;20209;-65
2022/05/15 09:14:53;;;;;;;3.15;2.60;;;;;;;34.64;23.71;99491.25;5089312;28;20219;-57
2022/05/15 09:17:28;;;;;;;2.95;2.55;;;;;;;34.94;23.52;99481.88;5089742;28;20195;-59
2022/05/15 09:19:58;;;;;;;3.17;2.38;;;;;;;35.03;22.76;99482.50;5089087;28;20195;-58
2022/05/15 09:22:30;;;;;;;5.47;2.50;;;;;;;35.26;23.04;99477.63;5086757;28;20190;-59
2022/05/15 09:24:57;;;;;;;3.83;2.50;;;;;;;34.55;23.87;99477.09;5089487;28;20191;-58
2022/05/15 09:27:31;;;;;;;2.92;2.40;;;;;;;34.70;23.47;99480.50;5089005;28;20338;-58
2022/05/15 09:30:00;;;;;;;2.63;1.95;;;;;;;34.73;22.90;99474.69;5088840;28;20321;-65
2022/05/15 09:32:30;;;;;;;5.65;2.90;;;;;;;34.86;22.85;99471.25;5086603;28;20717;-64
2022/05/15 09:34:59;;;;;;;7.20;3.25;;;;;;;34.74;23.63;99468.28;5089350;28;20237;-65
2022/05/15 09:40:20;;;;;;;4.88;2.92;;;;;;;35.52;22.66;99472.28;5087684;28;20587;-64
2022/05/15 09:45:55;;;;;;;3.03;2.42;;;;;;;35.68;22.36;99466.47;5089821;28;20219;-66
2022/05/15 09:48:25;;;;;;;2.53;2.38;;;;;;;35.65;22.64;99460.66;5089704;28;20209;-65
2022/05/15 09:51:00;;;;;;;2.83;2.60;;;;;;;35.62;22.44;99463.78;5089229;28;20305;-65
2022/05/15 09:53:38;;;;;;;2.80;2.60;;;;;;;35.51;22.39;99462.53;5089334;28;20728;-67
2022/05/15 09:56:07;;;;;;;6.82;2.50;;;;;;;35.06;22.65;99453.28;5092017;28;20194;-65
2022/05/15 09:58:46;;;;;;;3.13;2.70;;;;;;;34.97;22.98;99450.97;5090800;28;20282;-66
2022/05/15 10:01:27;;;;;;;2.40;2.20;;;;;;;35.18;21.94;99459.75;5083468;28;20211;-63
2022/05/15 10:03:56;;;;;;;2.42;2.10;;;;;;;35.13;21.73;99459.50;5088300;28;20264;-61
2022/05/15 10:06:26;;;;;;;2.40;2.30;;;;;;;35.12;23.12;99452.44;5092745;28;20199;-63
2022/05/15 10:09:12;;;;;;;3.63;2.10;;;;;;;34.77;22.63;99437.38;5092460;28;20649;-59
2022/05/15 10:11:43;;;;;;;3.10;2.38;;;;;;;34.57;22.60;99430.03;5089710;28;20183;-58
2022/05/15 10:14:24;;;;;;;7.57;3.22;;;;;;;34.50;22.72;99453.44;5091590;28;20219;-60
2022/05/15 10:16:54;;;;;;;2.60;2.40;;;;;;;34.01;22.91;99445.44;5091189;28;20198;-59
2022/05/15 10:19:28;;;;;;;6.15;2.35;;;;;;;33.30;22.63;99441.88;5089622;28;20195;-58
2022/05/15 10:22:02;;;;;;;3.80;2.28;;;;;;;32.45;23.35;99406.75;5090386;28;20195;-61
2022/05/15 10:24:34;;;;;;;4.75;2.20;;;;;;;32.38;23.50;99440.75;5086533;28;20282;-61
2022/05/15 10:27:05;;;;;;;2.10;2.00;;;;;;;32.02;23.65;99437.94;5089873;28;20712;-62
2022/05/15 10:29:41;;;;;;;4.00;2.55;;;;;;;31.87;24.41;99429.84;5092010;28;20278;-59
2022/05/15 10:32:15;;;;;;;2.60;2.20;;;;;;;31.75;24.18;99433.97;5090563;28;20651;-60
2022/05/15 10:34:42;;;;;;;5.35;2.33;;;;;;;31.76;24.31;99435.66;5092975;28;20227;-60
2022/05/15 10:37:31;;;;;;;4.72;3.13;;;;;;;31.63;24.42;99422.84;5091990;28;20206;-62
2022/05/15 10:40:19;;;;;;;2.65;2.40;;;;;;;31.45;24.19;99430.38;5089980;28;20230;-60
2022/05/15 10:43:00;;;;;;;2.85;2.47;;;;;;;31.35;24.63;99438.66;5091042;28;20274;-59
2022/05/15 10:45:35;;;;;;;3.03;2.25;;;;;;;31.42;24.28;99424.50;5091150;28;20277;-59
2022/05/15 10:48:14;;;;;;;3.45;2.00;;;;;;;31.34;24.36;99428.94;5091711;28;20190;-60
2022/05/15 10:50:50;;;;;;;2.83;2.30;;;;;;;31.26;23.78;99418.28;5091170;28;20210;-58
2022/05/15 10:59:29;;;;;;;2.75;2.50;;;;;;;31.01;24.64;99406.84;5091661;28;20585;-59
2022/05/15 11:02:06;;;;;;;2.75;2.55;;;;;;;31.12;24.28;99410.16;5091055;28;20194;-61
2022/05/15 11:04:47;;;;;;;2.97;2.33;;;;;;;31.10;25.36;99409.50;5091669;28;20326;-62
2022/05/15 11:07:22;;;;;;;4.90;2.40;;;;;;;31.04;25.04;99416.38;5089664;28;20195;-63
2022/05/15 11:10:03;;;;;;;3.65;2.35;;;;;;;31.09;24.95;99415.88;5089071;28;20667;-59
2022/05/15 11:12:41;;;;;;;4.07;2.70;;;;;;;31.11;25.00;99408.50;5087806;28;20194;-59
2022/05/15 11:15:34;;;;;;;3.15;2.53;;;;;;;31.16;24.98;99416.81;5091177;28;20206;-58
2022/05/15 11:18:17;;;;;;;3.80;2.35;;;;;;;31.31;24.23;99410.50;5091868;28;20722;-58
2022/05/15 11:20:47;;;;;;;4.20;2.30;;;;;;;31.32;23.98;99412.19;5091343;28;20221;-59
2022/05/15 11:23:24;;;;;;;5.43;2.28;;;;;;;31.29;23.52;99390.25;5090830;28;20202;-68
2022/05/15 11:25:55;;;;;;;2.50;2.30;;;;;;;31.22;23.80;99400.03;5090787;28;20376;-58
2022/05/15 11:28:29;;;;;;;3.75;2.72;;;;;;;31.13;23.63;99406.47;5091035;28;20195;-58
2022/05/15 11:31:03;;;;;;;2.58;2.38;;;;;;;30.82;24.71;99393.88;5091110;28;20291;-57
2022/05/15 11:33:49;;;;;;;3.10;2.30;;;;;;;30.77;24.28;99396.28;5090847;28;20223;-65
2022/05/15 11:36:31;;;;;;;3.00;2.70;;;;;;;30.91;25.11;99381.28;5091097;28;20199;-67
2022/05/15 11:39:03;;;;;;;7.53;2.58;;;;;;;31.14;25.83;99394.75;5091032;28;20195;-66
2022/05/15 11:41:32;;;;;;;2.50;2.30;;;;;;;31.08;24.07;99382.00;5090820;28;20593;-65
2022/05/15 11:44:03;;;;;;;3.45;2.50;;;;;;;30.94;24.08;99397.00;5090874;28;20198;-67
2022/05/15 11:46:58;;;;;;;5.35;2.50;;;;;;;30.79;24.43;99396.09;5091107;28;20667;-69
2022/05/15 11:49:31;;;;;;;4.22;2.40;;;;;;;30.69;24.58;99382.94;5084907;28;20602;-67
2022/05/15 11:52:33;;;;;;;5.85;2.60;;;;;;;30.62;25.08;99381.94;5090759;28;20238;-66
2022/05/15 11:55:00;;;;;;;2.65;2.45;;;;;;;30.49;25.63;99376.28;5090663;28;20218;-64
2022/05/15 11:57:43;;;;;;;6.65;2.40;;;;;;;30.60;25.30;99366.03;5090575;28;20195;-65
2022/05/15 12:00:22;;;;;;;2.53;2.33;;;;;;;30.74;25.71;99379.72;5090544;28;20423;-67
2022/05/15 12:02:58;;;;;;;4.90;2.45;;;;;;;30.91;25.65;99365.22;5090802;28;20222;-67
2022/05/15 12:05:38;;;;;;;4.10;2.53;;;;;;;31.00;26.40;99364.97;5090166;28;20311;-67
2022/05/15 12:08:37;;;;;;;3.58;2.67;;;;;;;30.96;26.32;99368.19;5088973;28;20199;-67
2022/05/15 12:11:31;;;;;;;4.18;2.65;;;;;;;31.05;26.73;99359.06;5089336;28;20223;-66